createdAt,value
2023-06-04T00:02:05.390Z,16.40
2023-06-04T00:04:33.454Z,16.20
2023-06-04T00:07:01.565Z,16.10
2023-06-04T00:09:29.677Z,16.00
2023-06-04T00:11:57.825Z,15.90
2023-06-04T00:14:26.106Z,16.00
2023-06-04T00:16:55.450Z,15.80
2023-06-04T00:19:23.489Z,15.70
2023-06-04T00:21:51.896Z,15.60
2023-06-04T00:24:19.900Z,15.40
2023-06-04T00:26:48.077Z,15.30
2023-06-04T00:29:16.432Z,15.30
2023-06-04T00:31:44.501Z,15.30
2023-06-04T00:34:13.997Z,15.40
2023-06-04T00:36:42.330Z,15.40
2023-06-04T00:39:10.289Z,15.30
2023-06-04T00:41:38.463Z,15.30
2023-06-04T00:44:07.377Z,15.20
2023-06-04T00:46:37.017Z,15.30
2023-06-04T00:49:06.542Z,15.10
2023-06-04T00:51:36.057Z,15.00
2023-06-04T00:54:09.831Z,14.90
2023-06-04T00:56:38.247Z,14.70
2023-06-04T00:59:07.432Z,14.60
2023-06-04T01:01:43.699Z,14.60
2023-06-04T01:04:18.215Z,14.70
2023-06-04T01:06:52.239Z,14.60
2023-06-04T01:09:21.410Z,14.60
2023-06-04T01:11:49.382Z,14.70
2023-06-04T01:14:19.558Z,14.70
2023-06-04T01:16:51.890Z,14.70
2023-06-04T01:19:49.031Z,14.80
2023-06-04T01:22:26.899Z,14.70
2023-06-04T01:24:57.973Z,14.80
2023-06-04T01:27:26.359Z,14.70
2023-06-04T01:29:57.858Z,14.70
2023-06-04T01:32:26.647Z,14.60
2023-06-04T01:34:54.791Z,14.70
2023-06-04T01:37:24.811Z,14.80
2023-06-04T01:39:52.852Z,14.80
2023-06-04T01:42:20.979Z,14.70
2023-06-04T01:44:49.018Z,14.70
2023-06-04T01:47:17.241Z,14.60
2023-06-04T01:49:45.253Z,14.50
2023-06-04T01:52:13.242Z,14.40
2023-06-04T01:54:43.833Z,14.40
2023-06-04T01:57:11.828Z,14.30
2023-06-04T01:59:39.878Z,14.40
2023-06-04T02:02:08.104Z,14.40
2023-06-04T02:04:37.649Z,14.30
2023-06-04T02:07:06.003Z,14.20
2023-06-04T02:09:33.995Z,14.20
2023-06-04T02:12:03.341Z,14.20
2023-06-04T02:14:31.371Z,14.20
2023-06-04T02:17:02.726Z,14.10
2023-06-04T02:19:30.764Z,14.10
2023-06-04T02:21:59.024Z,14.10
2023-06-04T02:24:27.059Z,14.00
2023-06-04T02:26:55.060Z,13.90
2023-06-04T02:29:24.898Z,13.80
2023-06-04T02:31:52.905Z,13.80
2023-06-04T02:34:20.888Z,13.80
2023-06-04T02:36:49.446Z,13.80
2023-06-04T02:39:17.551Z,13.70
2023-06-04T02:41:45.619Z,13.60
2023-06-04T02:44:13.635Z,13.40
2023-06-04T02:46:43.010Z,13.30
2023-06-04T02:49:14.610Z,13.30
2023-06-04T02:51:42.635Z,13.20
2023-06-04T02:54:10.733Z,13.20
2023-06-04T02:56:39.198Z,13.10
2023-06-04T02:59:11.530Z,13.00
2023-06-04T03:01:43.327Z,13.00
2023-06-04T03:04:15.704Z,13.20
2023-06-04T03:06:46.235Z,13.00
2023-06-04T03:09:14.622Z,13.00
2023-06-04T03:11:42.645Z,13.00
2023-06-04T03:14:11.147Z,12.90
2023-06-04T03:16:40.914Z,12.90
2023-06-04T03:19:12.647Z,12.90
2023-06-04T03:21:40.761Z,12.80
2023-06-04T03:24:08.840Z,12.80
2023-06-04T03:26:36.787Z,12.80
2023-06-04T03:29:04.773Z,12.90
2023-06-04T03:31:33.611Z,12.90
2023-06-04T03:34:01.745Z,12.90
2023-06-04T03:36:33.530Z,12.90
2023-06-04T03:39:01.500Z,12.80
2023-06-04T03:41:29.489Z,12.80
2023-06-04T03:43:57.408Z,12.70
2023-06-04T03:46:26.471Z,12.70
2023-06-04T03:48:54.573Z,12.70
2023-06-04T03:51:22.515Z,12.70
2023-06-04T03:53:51.823Z,12.70
2023-06-04T03:56:20.870Z,12.80
2023-06-04T03:58:48.823Z,12.90
2023-06-04T04:01:18.081Z,12.90
2023-06-04T04:03:50.389Z,12.80
2023-06-04T04:06:18.553Z,12.90
2023-06-04T04:08:46.689Z,13.00
2023-06-04T04:11:17.328Z,13.10
2023-06-04T04:13:47.743Z,13.20
2023-06-04T04:16:15.875Z,13.20
2023-06-04T04:18:45.124Z,13.10
2023-06-04T04:21:13.314Z,13.10
2023-06-04T04:23:42.209Z,13.10
2023-06-04T04:26:11.092Z,13.10
2023-06-04T04:28:40.483Z,13.20
2023-06-04T04:31:09.819Z,13.20
2023-06-04T04:33:40.628Z,13.00
2023-06-04T04:36:13.532Z,13.10
2023-06-04T04:38:42.245Z,13.20
2023-06-04T04:41:10.648Z,13.30
2023-06-04T04:43:41.407Z,13.40
2023-06-04T04:46:10.959Z,13.40
2023-06-04T04:48:39.788Z,13.40
2023-06-04T04:51:08.055Z,13.40
2023-06-04T04:53:37.105Z,13.40
2023-06-04T04:56:07.815Z,13.50
2023-06-04T04:58:35.998Z,13.60
2023-06-04T05:01:05.640Z,13.70
2023-06-04T05:03:34.153Z,13.80
2023-06-04T05:06:02.140Z,13.90
2023-06-04T05:08:30.155Z,14.10
2023-06-04T05:10:58.100Z,14.10
2023-06-04T05:13:26.120Z,14.20
2023-06-04T05:15:54.279Z,14.10
2023-06-04T05:18:29.916Z,14.20
2023-06-04T05:20:59.049Z,14.20
2023-06-04T05:23:27.069Z,14.20
2023-06-04T05:25:55.527Z,14.20
2023-06-04T05:28:26.141Z,14.20
2023-06-04T05:30:59.902Z,14.30
2023-06-04T05:33:29.827Z,14.30
2023-06-04T05:35:58.854Z,14.40
2023-06-04T05:38:27.628Z,14.40
2023-06-04T05:40:56.598Z,14.60
2023-06-04T05:43:24.690Z,14.80
2023-06-04T05:45:53.508Z,15.00
2023-06-04T05:48:21.494Z,15.30
2023-06-04T05:50:51.001Z,15.50
2023-06-04T05:53:19.016Z,15.70
2023-06-04T05:55:47.061Z,15.90
2023-06-04T05:58:15.003Z,16.40
2023-06-04T06:00:43.503Z,16.70
2023-06-04T06:03:11.765Z,17.00
2023-06-04T06:05:39.956Z,17.20
2023-06-04T06:08:09.250Z,17.40
2023-06-04T06:10:37.614Z,17.60
2023-06-04T06:13:05.568Z,17.70
2023-06-04T06:15:34.157Z,17.80
2023-06-04T06:18:02.185Z,17.90
2023-06-04T06:20:30.376Z,18.00
2023-06-04T06:22:58.458Z,18.20
2023-06-04T06:25:27.761Z,18.30
2023-06-04T06:27:55.777Z,18.40
2023-06-04T06:30:24.135Z,18.30
2023-06-04T06:32:54.329Z,18.40
2023-06-04T06:35:24.174Z,18.60
2023-06-04T06:37:52.165Z,18.80
2023-06-04T06:40:21.307Z,18.80
2023-06-04T06:42:52.442Z,19.00
2023-06-04T06:45:21.631Z,19.00
2023-06-04T06:47:50.168Z,18.90
2023-06-04T06:50:18.411Z,19.10
2023-06-04T06:52:46.420Z,19.30
2023-06-04T06:55:14.409Z,19.30
2023-06-04T06:57:42.599Z,19.60
2023-06-04T07:00:13.462Z,19.80
2023-06-04T07:02:41.553Z,19.90
2023-06-04T07:05:10.108Z,19.90
2023-06-04T07:07:38.390Z,19.90
2023-06-04T07:10:07.114Z,20.10
2023-06-04T07:12:35.158Z,20.20
2023-06-04T07:15:03.419Z,20.20
2023-06-04T07:17:32.785Z,20.40
2023-06-04T07:20:01.310Z,20.50
2023-06-04T07:22:29.373Z,20.70
2023-06-04T07:24:57.333Z,20.80
2023-06-04T07:27:25.616Z,20.80
2023-06-04T07:29:53.776Z,20.70
2023-06-04T07:32:21.800Z,20.90
2023-06-04T07:34:51.524Z,21.10
2023-06-04T07:37:19.648Z,21.30
2023-06-04T07:39:47.613Z,21.40
2023-06-04T07:42:15.996Z,21.30
2023-06-04T07:44:44.103Z,21.40
2023-06-04T07:47:12.165Z,21.40
2023-06-04T07:49:50.579Z,21.40
2023-06-04T07:52:27.664Z,21.70
2023-06-04T07:54:55.643Z,21.80
2023-06-04T07:57:23.711Z,21.80
2023-06-04T07:59:52.470Z,22.00
2023-06-04T08:02:20.804Z,22.10
2023-06-04T08:04:49.014Z,22.20
2023-06-04T08:07:17.142Z,22.30
2023-06-04T08:09:46.934Z,22.40
2023-06-04T08:12:16.771Z,22.60
2023-06-04T08:14:45.064Z,22.30
2023-06-04T08:17:13.092Z,22.30
2023-06-04T08:19:41.205Z,22.70
2023-06-04T08:22:12.334Z,22.90
2023-06-04T08:24:41.683Z,23.00
2023-06-04T08:27:11.048Z,23.30
2023-06-04T08:29:40.931Z,23.50
2023-06-04T08:32:09.763Z,23.70
2023-06-04T08:34:37.913Z,23.80
2023-06-04T08:37:06.956Z,24.00
2023-06-04T08:39:35.387Z,24.00
2023-06-04T08:42:08.681Z,24.20
2023-06-04T08:44:38.041Z,24.20
2023-06-04T08:47:07.745Z,24.40
2023-06-04T08:49:37.920Z,24.10
2023-06-04T08:52:07.638Z,24.00
2023-06-04T08:54:35.931Z,24.20
2023-06-04T08:57:04.161Z,24.50
2023-06-04T08:59:32.298Z,24.80
2023-06-04T09:02:02.244Z,25.00
2023-06-04T09:04:31.364Z,25.20
2023-06-04T09:07:04.566Z,25.30
2023-06-04T09:09:33.268Z,24.90
2023-06-04T09:12:06.047Z,24.70
2023-06-04T09:14:34.349Z,24.80
2023-06-04T09:17:03.843Z,24.90
2023-06-04T09:19:31.926Z,25.00
2023-06-04T09:22:03.739Z,25.20
2023-06-04T09:24:41.590Z,25.20
2023-06-04T09:27:13.990Z,25.60
2023-06-04T09:29:42.280Z,25.80
2023-06-04T09:32:14.083Z,25.90
2023-06-04T09:34:46.251Z,26.00
2023-06-04T09:37:17.127Z,26.20
2023-06-04T09:39:45.369Z,26.30
2023-06-04T09:42:13.916Z,26.20
2023-06-04T09:44:48.101Z,26.30
2023-06-04T09:47:17.750Z,26.40
2023-06-04T09:49:46.985Z,26.40
2023-06-04T09:52:16.060Z,26.40
2023-06-04T09:54:44.502Z,26.40
2023-06-04T09:57:18.217Z,26.30
2023-06-04T09:59:48.086Z,26.30
2023-06-04T10:02:22.069Z,26.50
2023-06-04T10:04:54.789Z,26.70
2023-06-04T10:07:23.911Z,26.80
2023-06-04T10:09:54.199Z,26.80
2023-06-04T10:12:27.751Z,26.80
2023-06-04T10:15:00.844Z,27.00
2023-06-04T10:17:31.783Z,27.10
2023-06-04T10:20:01.987Z,27.20
2023-06-04T10:22:31.813Z,27.30
2023-06-04T10:25:00.336Z,27.50
2023-06-04T10:27:28.522Z,27.70
2023-06-04T10:29:57.151Z,27.70
2023-06-04T10:32:28.296Z,27.80
2023-06-04T10:34:58.441Z,27.70
2023-06-04T10:37:28.009Z,27.60
2023-06-04T10:39:57.423Z,27.50
2023-06-04T10:42:26.085Z,27.50
2023-06-04T10:44:57.897Z,27.50
2023-06-04T10:47:27.788Z,27.60
2023-06-04T10:50:08.524Z,27.60
2023-06-04T10:52:36.536Z,27.60
2023-06-04T10:55:06.446Z,27.50
2023-06-04T10:57:34.858Z,27.60
2023-06-04T11:00:04.787Z,27.60
2023-06-04T11:02:32.868Z,27.60
2023-06-04T11:05:06.693Z,27.70
2023-06-04T11:07:44.718Z,27.80
2023-06-04T11:10:13.349Z,27.90
2023-06-04T11:12:45.482Z,28.00
2023-06-04T11:15:13.870Z,27.80
2023-06-04T11:17:53.129Z,27.70
2023-06-04T11:20:24.151Z,27.60
2023-06-04T11:22:57.081Z,27.80
2023-06-04T11:25:25.880Z,27.90
2023-06-04T11:27:55.074Z,27.80
2023-06-04T11:30:24.449Z,27.60
2023-06-04T11:32:52.750Z,27.60
2023-06-04T11:35:22.156Z,27.60
2023-06-04T11:37:56.631Z,27.80
2023-06-04T11:40:25.314Z,28.00
2023-06-04T11:42:53.981Z,27.70
2023-06-04T11:45:23.807Z,27.70
2023-06-04T11:47:54.719Z,27.80
2023-06-04T11:50:25.418Z,27.90
2023-06-04T11:52:55.082Z,28.00
2023-06-04T11:55:23.796Z,28.20
2023-06-04T11:57:52.379Z,28.20
2023-06-04T12:00:21.331Z,28.30
2023-06-04T12:02:54.374Z,28.20
2023-06-04T12:05:26.198Z,28.10
2023-06-04T12:07:54.270Z,28.00
2023-06-04T12:10:25.033Z,28.00
2023-06-04T12:12:56.917Z,28.00
2023-06-04T12:15:27.000Z,28.10
2023-06-04T12:17:56.337Z,28.20
2023-06-04T12:20:37.056Z,28.20
2023-06-04T12:23:05.837Z,28.30
2023-06-04T12:25:35.611Z,28.30
2023-06-04T12:28:05.431Z,28.20
2023-06-04T12:30:40.086Z,28.10
2023-06-04T12:33:08.499Z,28.00
2023-06-04T12:35:38.047Z,27.80
2023-06-04T12:38:10.020Z,27.50
2023-06-04T12:40:38.166Z,27.80
2023-06-04T12:43:07.504Z,27.80
2023-06-04T12:45:35.522Z,27.70
2023-06-04T12:48:03.544Z,27.70
2023-06-04T12:50:31.581Z,27.80
2023-06-04T12:53:01.015Z,27.90
2023-06-04T12:55:29.040Z,27.90
2023-06-04T12:57:57.125Z,28.00
2023-06-04T13:00:25.176Z,28.10
2023-06-04T13:02:53.413Z,28.00
2023-06-04T13:05:21.544Z,27.80
2023-06-04T13:07:49.652Z,27.80
2023-06-04T13:10:18.942Z,27.80
2023-06-04T13:12:46.939Z,27.80
2023-06-04T13:15:14.906Z,27.60
2023-06-04T13:17:42.829Z,27.50
2023-06-04T13:20:12.368Z,27.60
2023-06-04T13:22:41.370Z,27.70
2023-06-04T13:25:10.225Z,27.80
2023-06-04T13:27:39.478Z,27.90
2023-06-04T13:30:08.594Z,27.90
2023-06-04T13:32:36.631Z,27.80
2023-06-04T13:35:04.907Z,27.70
2023-06-04T13:37:32.855Z,27.80
2023-06-04T13:40:00.924Z,27.90
2023-06-04T13:42:28.898Z,27.90
2023-06-04T13:44:58.467Z,27.80
2023-06-04T13:47:26.639Z,27.60
2023-06-04T13:49:54.699Z,27.40
2023-06-04T13:52:22.685Z,27.20
2023-06-04T13:54:50.668Z,27.30
2023-06-04T13:57:18.750Z,27.30
2023-06-04T13:59:46.759Z,27.40
2023-06-04T14:02:16.206Z,27.40
2023-06-04T14:04:44.218Z,27.40
2023-06-04T14:07:12.591Z,27.30
2023-06-04T14:09:41.109Z,27.20
2023-06-04T14:12:10.693Z,27.20
2023-06-04T14:14:38.693Z,26.90
2023-06-04T14:17:07.502Z,26.60
2023-06-04T14:19:36.843Z,26.60
2023-06-04T14:22:05.266Z,26.70
2023-06-04T14:24:33.388Z,26.80
2023-06-04T14:27:01.910Z,26.90
2023-06-04T14:29:29.901Z,27.00
2023-06-04T14:31:58.065Z,27.00
2023-06-04T14:34:26.196Z,26.90
2023-06-04T14:36:55.699Z,26.90
2023-06-04T14:39:23.730Z,26.80
2023-06-04T14:41:53.308Z,26.70
2023-06-04T14:44:21.549Z,26.80
2023-06-04T14:46:52.004Z,26.80
2023-06-04T14:49:20.203Z,26.90
2023-06-04T14:51:48.645Z,26.90
2023-06-04T14:54:19.466Z,27.00
2023-06-04T14:56:47.465Z,27.10
2023-06-04T14:59:15.539Z,27.10
2023-06-04T15:01:44.715Z,27.10
2023-06-04T15:04:12.805Z,27.20
2023-06-04T15:06:41.026Z,27.20
2023-06-04T15:09:09.021Z,27.30
2023-06-04T15:11:38.432Z,27.30
2023-06-04T15:14:06.485Z,27.20
2023-06-04T15:16:34.577Z,27.20
2023-06-04T15:19:02.876Z,27.20
2023-06-04T15:21:31.043Z,27.20
2023-06-04T15:23:59.228Z,27.00
2023-06-04T15:26:28.109Z,27.00
2023-06-04T15:28:58.373Z,27.00
2023-06-04T15:31:26.623Z,27.10
2023-06-04T15:33:54.622Z,27.20
2023-06-04T15:36:22.663Z,27.40
2023-06-04T15:38:51.606Z,27.20
2023-06-04T15:41:22.404Z,27.20
2023-06-04T15:43:53.962Z,27.20
2023-06-04T15:46:27.391Z,27.20
2023-06-04T15:48:55.489Z,27.10
2023-06-04T15:51:23.712Z,27.20
2023-06-04T15:53:51.721Z,27.10
2023-06-04T15:56:20.067Z,27.00
2023-06-04T15:58:48.069Z,26.90
2023-06-04T16:01:16.307Z,26.80
2023-06-04T16:03:45.702Z,26.80
2023-06-04T16:06:13.833Z,26.60
2023-06-04T16:08:42.306Z,26.50
2023-06-04T16:11:10.673Z,26.40
2023-06-04T16:13:38.993Z,26.50
2023-06-04T16:16:07.281Z,26.50
2023-06-04T16:18:35.783Z,26.50
2023-06-04T16:21:05.253Z,26.60
2023-06-04T16:23:33.317Z,26.60
2023-06-04T16:26:01.436Z,26.30
2023-06-04T16:28:30.102Z,26.20
2023-06-04T16:30:58.660Z,26.20
2023-06-04T16:33:26.863Z,26.10
2023-06-04T16:35:54.927Z,26.10
2023-06-04T16:38:24.621Z,26.10
2023-06-04T16:40:54.023Z,26.00
2023-06-04T16:43:22.011Z,26.00
2023-06-04T16:45:50.102Z,25.90
2023-06-04T16:48:18.189Z,25.80
2023-06-04T16:50:46.208Z,25.70
2023-06-04T16:53:14.444Z,25.70
2023-06-04T16:55:43.852Z,25.70
2023-06-04T16:58:11.826Z,25.70
2023-06-04T17:00:39.944Z,25.60
2023-06-04T17:03:08.071Z,25.60
2023-06-04T17:05:36.253Z,25.60
2023-06-04T17:08:04.310Z,25.50
2023-06-04T17:10:33.976Z,25.40
2023-06-04T17:13:03.737Z,25.30
2023-06-04T17:15:31.998Z,25.20
2023-06-04T17:18:02.250Z,25.20
2023-06-04T17:20:32.393Z,25.20
2023-06-04T17:23:01.144Z,25.10
2023-06-04T17:25:29.397Z,25.10
2023-06-04T17:27:57.699Z,25.20
2023-06-04T17:30:27.140Z,25.20
2023-06-04T17:32:56.060Z,25.20
2023-06-04T17:35:24.189Z,25.20
2023-06-04T17:37:52.341Z,25.10
2023-06-04T17:40:20.344Z,25.00
2023-06-04T17:42:48.496Z,24.90
2023-06-04T17:45:17.041Z,24.90
2023-06-04T17:47:46.598Z,25.00
2023-06-04T17:50:14.684Z,25.00
2023-06-04T17:52:42.669Z,25.00
2023-06-04T17:55:11.010Z,24.90
2023-06-04T17:57:39.033Z,24.70
2023-06-04T18:00:08.752Z,24.60
2023-06-04T18:02:36.864Z,24.50
2023-06-04T18:05:07.054Z,24.40
2023-06-04T18:07:35.060Z,24.40
2023-06-04T18:10:03.216Z,24.30
2023-06-04T18:12:32.808Z,24.30
2023-06-04T18:15:02.456Z,24.30
2023-06-04T18:17:30.544Z,24.20
2023-06-04T18:19:58.584Z,24.20
2023-06-04T18:22:28.041Z,24.10
2023-06-04T18:24:56.023Z,24.10
2023-06-04T18:27:24.079Z,24.00
2023-06-04T18:29:52.052Z,23.90
2023-06-04T18:32:20.126Z,23.90
2023-06-04T18:34:48.115Z,23.90
2023-06-04T18:37:16.342Z,23.80
2023-06-04T18:39:45.878Z,23.80
2023-06-04T18:42:22.030Z,23.80
2023-06-04T18:44:58.535Z,23.70
2023-06-04T18:47:27.140Z,23.60
2023-06-04T18:49:56.718Z,23.50
2023-06-04T18:52:24.886Z,23.50
2023-06-04T18:54:54.454Z,23.50
2023-06-04T18:57:22.914Z,23.30
2023-06-04T18:59:51.370Z,23.30
2023-06-04T19:02:19.568Z,23.20
2023-06-04T19:04:47.670Z,23.20
2023-06-04T19:07:15.741Z,23.10
2023-06-04T19:09:43.963Z,23.00
2023-06-04T19:12:13.366Z,22.90
2023-06-04T19:14:41.405Z,22.90
2023-06-04T19:17:09.511Z,22.80
2023-06-04T19:19:37.674Z,22.70
2023-06-04T19:22:06.313Z,22.60
2023-06-04T19:24:34.365Z,22.50
2023-06-04T19:27:02.343Z,22.50
2023-06-04T19:29:31.796Z,22.40
2023-06-04T19:31:59.954Z,22.40
2023-06-04T19:34:29.063Z,22.30
2023-06-04T19:36:57.539Z,22.20
2023-06-04T19:39:26.233Z,22.30
2023-06-04T19:41:54.278Z,22.10
2023-06-04T19:44:22.288Z,22.00
2023-06-04T19:46:51.738Z,22.00
2023-06-04T19:49:20.806Z,21.90
2023-06-04T19:51:49.243Z,21.80
2023-06-04T19:54:17.943Z,21.80
2023-06-04T19:56:46.014Z,21.70
2023-06-04T19:59:14.090Z,21.60
2023-06-04T20:01:42.114Z,21.50
2023-06-04T20:04:12.184Z,21.40
2023-06-04T20:06:40.333Z,21.30
2023-06-04T20:09:08.742Z,21.10
2023-06-04T20:11:36.726Z,21.20
2023-06-04T20:14:06.822Z,21.20
2023-06-04T20:16:34.961Z,21.00
2023-06-04T20:19:03.010Z,20.90
2023-06-04T20:21:33.612Z,20.80
2023-06-04T20:24:03.731Z,20.80
2023-06-04T20:26:33.799Z,20.70
2023-06-04T20:29:02.148Z,20.80
2023-06-04T20:31:30.323Z,20.90
2023-06-04T20:33:58.506Z,20.80
2023-06-04T20:36:27.595Z,20.80
2023-06-04T20:38:57.488Z,20.70
2023-06-04T20:41:26.046Z,20.50
2023-06-04T20:43:55.254Z,20.40
2023-06-04T20:46:23.604Z,20.40
2023-06-04T20:48:52.037Z,20.20
2023-06-04T20:51:20.226Z,20.20
2023-06-04T20:53:49.174Z,20.10
2023-06-04T20:56:18.895Z,20.00
2023-06-04T20:58:47.933Z,19.90
2023-06-04T21:01:16.095Z,19.90
2023-06-04T21:03:44.253Z,19.80
2023-06-04T21:06:12.443Z,19.40
2023-06-04T21:08:40.555Z,19.20
2023-06-04T21:11:08.940Z,19.00
2023-06-04T21:13:38.721Z,18.80
2023-06-04T21:16:07.203Z,18.70
2023-06-04T21:18:35.286Z,18.60
2023-06-04T21:21:03.367Z,18.60
2023-06-04T21:23:31.400Z,18.60
2023-06-04T21:25:59.454Z,18.60
2023-06-04T21:28:27.416Z,18.50
2023-06-04T21:30:56.781Z,18.40
2023-06-04T21:33:24.985Z,18.30
2023-06-04T21:35:52.971Z,18.10
2023-06-04T21:38:21.051Z,18.00
2023-06-04T21:40:49.108Z,18.00
2023-06-04T21:43:17.721Z,18.00
2023-06-04T21:45:46.346Z,17.90
2023-06-04T21:48:15.878Z,17.80
2023-06-04T21:50:43.917Z,17.70
2023-06-04T21:53:11.889Z,17.60
2023-06-04T21:55:39.844Z,17.40
2023-06-04T21:58:07.818Z,17.40
2023-06-04T22:00:35.914Z,17.20
2023-06-04T22:03:04.128Z,17.00
2023-06-04T22:05:33.584Z,16.90
2023-06-04T22:08:02.149Z,17.00
2023-06-04T22:10:30.288Z,17.00
2023-06-04T22:12:58.537Z,17.00
2023-06-04T22:15:26.671Z,17.00
2023-06-04T22:17:54.670Z,16.80
2023-06-04T22:20:22.748Z,16.80
2023-06-04T22:22:52.070Z,16.60
2023-06-04T22:25:20.157Z,16.40
2023-06-04T22:27:48.143Z,16.30
2023-06-04T22:30:16.332Z,16.30
2023-06-04T22:32:44.418Z,16.30
2023-06-04T22:35:12.704Z,16.40
2023-06-04T22:37:40.702Z,16.40
2023-06-04T22:40:11.059Z,16.30
2023-06-04T22:42:39.076Z,16.30
2023-06-04T22:45:08.083Z,16.20
2023-06-04T22:47:36.124Z,16.20
2023-06-04T22:50:04.181Z,16.20
2023-06-04T22:52:33.642Z,16.00
2023-06-04T22:55:02.167Z,16.00
2023-06-04T22:57:31.590Z,15.90
2023-06-04T22:59:59.882Z,15.90
2023-06-04T23:02:27.934Z,15.80
2023-06-04T23:04:56.252Z,15.70
2023-06-04T23:07:24.357Z,15.70
2023-06-04T23:09:52.996Z,15.50
2023-06-04T23:12:21.244Z,15.40
2023-06-04T23:14:50.774Z,15.30
2023-06-04T23:17:19.593Z,15.30
2023-06-04T23:19:47.788Z,15.20
2023-06-04T23:22:16.192Z,15.20
2023-06-04T23:24:44.150Z,15.20
2023-06-04T23:27:12.194Z,15.10
2023-06-04T23:29:40.174Z,15.00
2023-06-04T23:32:09.638Z,14.80
2023-06-04T23:34:37.641Z,14.70
2023-06-04T23:37:05.982Z,14.60
2023-06-04T23:39:33.968Z,14.60
2023-06-04T23:42:02.031Z,14.50
2023-06-04T23:44:30.036Z,14.50
2023-06-04T23:46:57.998Z,14.40
2023-06-04T23:49:27.467Z,14.40
2023-06-04T23:51:55.414Z,14.40
2023-06-04T23:54:23.588Z,14.50
2023-06-04T23:56:52.416Z,14.30
2023-06-04T23:59:20.507Z,14.30
